Terminal Aerodrome Forecast
Issued by NWS

Home | Current Version | Previous Version | Text Only | Print | Product List | Glossary On
Versions: 1 2 3 4 5 6 7 8 9 10 11 12 13 14
000
FTUS45 KTFX 272337
TAFBZN
TAF
KBZN 272337Z 2800/2824 15010KT P6SM VCTS SCT040 BKN070CB
      TEMPO 2800/2802 5SM -TSRA BKN040CB
     FM280500 19005KT P6SM SCT050 BKN080
     FM281500 32006KT P6SM VCSH BKN060
     FM281800 VRB06KT P6SM VCTS BKN050CB PROB30 2820/2824 VRB25G35KT
      3SM -TSRA BKN030CB=

USA.gov is the U.S. government's official web portal to all federal, state and local government web resources and services.